createdAt,value
2019-04-23T00:04:07.117Z,68.35
2019-04-23T00:06:25.866Z,66.37
2019-04-23T00:09:05.150Z,60.67
2019-04-23T00:14:05.749Z,78.67
2019-04-23T00:16:56.528Z,89.60
2019-04-23T00:19:02.443Z,81.37
2019-04-23T00:21:50.667Z,78.80
2019-04-23T00:24:56.823Z,80.17
2019-04-23T00:27:22.640Z,76.20
2019-04-23T00:29:45.949Z,81.50
2019-04-23T00:37:25.962Z,78.97
2019-04-23T00:39:52.836Z,88.25
2019-04-23T00:42:29.571Z,73.90
2019-04-23T00:44:56.371Z,81.90
2019-04-23T00:50:15.968Z,74.40
2019-04-23T00:52:43.147Z,84.35
2019-04-23T00:55:14.682Z,82.82
2019-04-23T00:57:40.573Z,84.62
2019-04-23T01:02:54.743Z,90.80
2019-04-23T01:05:24.939Z,86.40
2019-04-23T01:07:58.698Z,77.42
2019-04-23T01:10:38.971Z,89.15
2019-04-23T01:13:09.198Z,89.42
2019-04-23T01:15:46.488Z,89.13
2019-04-23T01:18:32.643Z,77.67
2019-04-23T01:20:53.734Z,79.65
2019-04-23T01:23:16.102Z,85.42
2019-04-23T01:26:00.276Z,85.55
2019-04-23T01:28:50.308Z,81.95
2019-04-23T01:31:20.136Z,83.60
2019-04-23T01:33:50.303Z,89.47
2019-04-23T01:36:29.212Z,90.85
2019-04-23T01:39:00.268Z,71.77
2019-04-23T01:41:33.365Z,86.28
2019-04-23T01:44:10.744Z,99.25
2019-04-23T01:46:45.794Z,84.77
2019-04-23T01:49:18.276Z,77.35
2019-04-23T01:51:46.727Z,81.00
2019-04-23T01:54:24.195Z,86.95
2019-04-23T01:56:49.447Z,79.20
2019-04-23T01:59:24.648Z,84.67
2019-04-23T02:01:58.409Z,87.70
2019-04-23T02:04:28.867Z,78.22
2019-04-23T02:07:11.260Z,78.97
2019-04-23T02:09:43.482Z,84.87
2019-04-23T02:12:18.139Z,88.40
2019-04-23T02:14:50.179Z,90.97
2019-04-23T02:17:21.921Z,89.25
2019-04-23T02:20:01.955Z,88.90
2019-04-23T02:22:46.229Z,112.62
2019-04-23T02:25:25.342Z,100.10
2019-04-23T02:27:56.229Z,98.67
2019-04-23T02:30:40.266Z,100.33
2019-04-23T02:38:11.659Z,97.30
2019-04-23T02:40:55.004Z,68.78
2019-04-23T02:43:15.108Z,88.65
2019-04-23T02:45:56.363Z,91.02
2019-04-23T02:56:01.206Z,107.97
2019-04-23T03:01:21.717Z,101.12
2019-04-23T03:03:49.686Z,104.12
2019-04-23T03:08:46.689Z,107.95
2019-04-23T03:14:03.565Z,92.50
2019-04-23T03:19:23.888Z,92.65
2019-04-23T03:21:56.060Z,97.95
2019-04-23T03:24:55.111Z,97.65
2019-04-23T03:42:38.580Z,99.70
2019-04-23T03:50:21.730Z,110.13
2019-04-23T03:52:38.681Z,99.87
2019-04-23T03:55:18.585Z,102.12
2019-04-23T03:57:43.267Z,102.53
2019-04-23T04:08:15.995Z,106.12
2019-04-23T04:13:11.890Z,117.97
2019-04-23T04:21:01.111Z,121.50
2019-04-23T04:26:13.753Z,128.20
2019-04-23T04:31:03.658Z,125.38
2019-04-23T04:36:14.022Z,139.12
2019-04-23T04:38:52.820Z,137.12
2019-04-23T04:41:13.559Z,134.32
2019-04-23T04:44:17.181Z,118.37
2019-04-23T04:46:31.862Z,121.67
2019-04-23T04:49:01.620Z,126.00
2019-04-23T04:51:41.865Z,127.27
2019-04-23T04:56:42.979Z,122.60
2019-04-23T04:59:39.842Z,128.70
2019-04-23T05:04:28.533Z,136.37
2019-04-23T05:09:43.820Z,123.22
2019-04-23T05:14:50.841Z,124.22
2019-04-23T05:17:15.647Z,123.92
2019-04-23T05:19:43.817Z,119.82
2019-04-23T05:27:19.307Z,107.80
2019-04-23T05:32:23.708Z,100.42
2019-04-23T05:34:56.184Z,95.90
2019-04-23T05:37:33.309Z,110.42
2019-04-23T05:40:08.511Z,108.50
2019-04-23T05:42:40.088Z,90.30
2019-04-23T05:45:31.517Z,103.38
2019-04-23T05:47:56.743Z,97.80
2019-04-23T05:50:32.377Z,94.85
2019-04-23T05:52:52.825Z,94.15
2019-04-23T05:55:26.431Z,112.65
2019-04-23T05:58:05.194Z,92.95
2019-04-23T06:00:39.925Z,89.50
2019-04-23T06:03:11.270Z,80.97
2019-04-23T06:08:17.942Z,86.42
2019-04-23T06:10:53.509Z,93.35
2019-04-23T06:13:22.519Z,82.25
2019-04-23T06:15:53.999Z,87.82
2019-04-23T06:18:30.489Z,78.37
2019-04-23T06:21:17.251Z,77.58
2019-04-23T06:23:37.642Z,77.27
2019-04-23T06:26:19.818Z,71.33
2019-04-23T06:28:41.285Z,65.17
2019-04-23T06:31:20.261Z,65.65
2019-04-23T06:33:48.128Z,52.85
2019-04-23T06:36:24.331Z,47.48
2019-04-23T06:41:23.421Z,54.33
2019-04-23T06:44:14.462Z,41.53
2019-04-23T06:46:45.926Z,51.30
2019-04-23T06:49:17.458Z,60.30
2019-04-23T06:51:55.167Z,63.08
2019-04-23T06:54:19.178Z,52.40
2019-04-23T06:57:02.240Z,50.12
2019-04-23T06:59:24.515Z,50.25
2019-04-23T07:02:06.345Z,41.83
2019-04-23T07:04:43.438Z,38.60
2019-04-23T07:07:31.459Z,42.30
2019-04-23T07:09:38.989Z,42.60
2019-04-23T07:12:16.624Z,30.25
2019-04-23T07:14:51.549Z,42.40
2019-04-23T07:17:23.173Z,38.42
2019-04-23T07:19:54.830Z,33.75
2019-04-23T07:22:34.884Z,36.25
2019-04-23T07:25:15.385Z,43.20
2019-04-23T07:27:59.099Z,39.37
2019-04-23T07:30:29.748Z,34.60
2019-04-23T07:33:04.180Z,48.25
2019-04-23T07:35:38.263Z,57.75
2019-04-23T07:38:33.339Z,45.43
2019-04-23T07:41:23.636Z,43.30
2019-04-23T07:43:54.471Z,43.65
2019-04-23T07:49:06.659Z,35.28
2019-04-23T07:51:44.944Z,52.48
2019-04-23T07:54:17.579Z,43.55
2019-04-23T07:56:53.050Z,31.40
2019-04-23T07:59:31.429Z,43.28
2019-04-23T08:01:57.740Z,43.38
2019-04-23T08:04:33.554Z,37.42
2019-04-23T08:07:00.457Z,34.50
2019-04-23T08:09:43.358Z,30.60
2019-04-23T08:14:48.061Z,31.17
2019-04-23T08:17:19.055Z,33.55
2019-04-23T08:27:42.044Z,43.33
2019-04-23T08:30:09.741Z,39.10
2019-04-23T08:32:54.307Z,35.52
2019-04-23T08:35:27.258Z,30.77
2019-04-23T08:38:11.186Z,38.08
2019-04-23T08:40:30.718Z,34.03
2019-04-23T08:43:05.604Z,32.13
2019-04-23T08:48:21.015Z,36.60
2019-04-23T08:50:46.716Z,35.45
2019-04-23T08:58:30.199Z,39.13
2019-04-23T09:00:58.626Z,37.20
2019-04-23T09:06:06.142Z,29.63
2019-04-23T09:08:49.513Z,31.10
2019-04-23T09:18:56.306Z,41.15
2019-04-23T09:21:30.973Z,34.08
2019-04-23T09:23:56.196Z,35.50
2019-04-23T09:26:33.141Z,30.27
2019-04-23T09:29:10.184Z,30.37
2019-04-23T09:32:15.114Z,48.65
2019-04-23T09:34:55.109Z,32.50
2019-04-23T09:37:26.531Z,41.63
2019-04-23T09:40:13.975Z,25.17
2019-04-23T09:45:41.094Z,38.42
2019-04-23T09:48:29.927Z,42.62
2019-04-23T09:50:49.474Z,44.40
2019-04-23T09:53:24.393Z,38.35
2019-04-23T09:55:45.526Z,42.38
2019-04-23T09:58:28.795Z,36.20
2019-04-23T10:03:40.616Z,39.65
2019-04-23T10:06:13.363Z,38.05
2019-04-23T10:08:44.943Z,38.40
2019-04-23T10:11:12.207Z,40.80
2019-04-23T10:13:45.108Z,38.35
2019-04-23T10:16:21.081Z,36.68
2019-04-23T10:18:53.275Z,38.65
2019-04-23T10:21:27.008Z,40.03
2019-04-23T10:23:59.116Z,31.60
2019-04-23T10:26:30.338Z,35.50
2019-04-23T10:29:07.719Z,41.48
2019-04-23T10:31:40.041Z,46.85
2019-04-23T10:34:13.047Z,29.35
2019-04-23T10:36:45.120Z,32.30
2019-04-23T10:39:23.213Z,37.48
2019-04-23T10:41:50.377Z,41.58
2019-04-23T10:44:33.543Z,34.67
2019-04-23T10:47:30.257Z,39.23
2019-04-23T10:50:05.542Z,38.02
2019-04-23T10:52:36.332Z,37.33
2019-04-23T10:55:12.002Z,37.33
2019-04-23T10:57:48.701Z,41.18
2019-04-23T11:00:23.973Z,34.10
2019-04-23T11:03:15.218Z,31.03
2019-04-23T11:05:36.899Z,31.90
2019-04-23T11:07:53.593Z,35.70
2019-04-23T11:10:33.236Z,33.45
2019-04-23T11:13:10.648Z,31.40
2019-04-23T11:16:00.130Z,38.92
2019-04-23T11:20:52.171Z,38.58
2019-04-23T11:23:22.459Z,33.83
2019-04-23T11:25:57.724Z,39.78
2019-04-23T11:31:03.375Z,30.40
2019-04-23T11:33:37.911Z,37.30
2019-04-23T11:36:41.117Z,36.13
2019-04-23T11:41:27.042Z,37.53
2019-04-23T11:43:49.015Z,32.05
2019-04-23T11:46:43.539Z,38.92
2019-04-23T11:54:01.597Z,30.77
2019-04-23T11:57:14.365Z,34.13
2019-04-23T11:59:17.505Z,34.40
2019-04-23T12:01:52.260Z,30.08
2019-04-23T12:04:41.720Z,34.18
2019-04-23T12:07:12.101Z,36.75
2019-04-23T12:09:51.737Z,34.95
2019-04-23T12:12:16.857Z,33.30
2019-04-23T12:14:48.056Z,31.87
2019-04-23T12:17:29.456Z,30.43
2019-04-23T12:20:08.027Z,30.68
2019-04-23T12:22:38.948Z,28.73
2019-04-23T12:32:53.770Z,28.90
2019-04-23T12:35:29.091Z,35.13
2019-04-23T12:38:07.307Z,36.55
2019-04-23T12:40:49.259Z,30.68
2019-04-23T12:53:32.082Z,53.87
2019-04-23T12:56:05.405Z,33.80
2019-04-23T12:58:27.852Z,31.02
2019-04-23T13:00:57.835Z,27.93
2019-04-23T13:03:34.145Z,27.82
2019-04-23T13:06:12.738Z,33.63
2019-04-23T13:09:08.046Z,32.20
2019-04-23T13:11:25.388Z,27.45
2019-04-23T13:13:53.649Z,32.60
2019-04-23T13:16:39.498Z,30.60
2019-04-23T13:19:06.211Z,43.20
2019-04-23T13:21:51.272Z,39.50
2019-04-23T13:24:09.608Z,36.05
2019-04-23T13:26:37.973Z,29.85
2019-04-23T13:29:18.755Z,33.98
2019-04-23T13:31:52.365Z,30.60
2019-04-23T13:34:31.091Z,28.38
2019-04-23T13:37:00.530Z,32.30
2019-04-23T13:39:36.352Z,35.40
2019-04-23T13:42:15.914Z,27.87
2019-04-23T13:44:42.393Z,29.97
2019-04-23T13:47:22.323Z,35.05
2019-04-23T13:49:55.255Z,33.93
2019-04-23T13:52:51.731Z,36.48
2019-04-23T13:59:55.969Z,34.60
2019-04-23T14:02:37.385Z,33.85
2019-04-23T14:05:06.286Z,32.35
2019-04-23T14:07:49.933Z,30.85
2019-04-23T14:10:18.108Z,36.42
2019-04-23T14:13:04.888Z,29.67
2019-04-23T14:15:34.172Z,32.88
2019-04-23T14:20:27.749Z,29.30
2019-04-23T14:25:41.431Z,28.93
2019-04-23T14:30:46.771Z,31.20
2019-04-23T14:33:17.868Z,36.40
2019-04-23T14:35:47.848Z,33.85
2019-04-23T14:38:27.405Z,28.35
2019-04-23T14:41:05.211Z,36.57
2019-04-23T14:43:26.999Z,28.20
2019-04-23T14:46:23.119Z,25.03
2019-04-23T14:48:31.408Z,26.15
2019-04-23T14:51:16.116Z,29.27
2019-04-23T14:53:42.628Z,31.23
2019-04-23T14:58:51.349Z,30.00
2019-04-23T15:09:10.825Z,32.23
2019-04-23T15:16:39.875Z,30.10
2019-04-23T15:22:08.367Z,31.27
2019-04-23T15:24:30.867Z,35.58
2019-04-23T15:29:24.610Z,29.50
2019-04-23T15:32:14.942Z,25.10
2019-04-23T15:34:42.626Z,26.93
2019-04-23T15:37:32.888Z,27.15
2019-04-23T15:39:56.808Z,49.13
2019-04-23T15:44:55.326Z,28.73
2019-04-23T15:47:29.605Z,30.72
2019-04-23T15:50:10.288Z,25.43
2019-04-23T15:52:48.454Z,36.50
2019-04-23T15:55:06.075Z,26.05
2019-04-23T16:00:24.932Z,33.80
2019-04-23T16:02:19.324Z,37.55
2019-04-23T16:04:51.230Z,27.77
2019-04-23T16:07:41.368Z,42.73
2019-04-23T16:12:59.784Z,35.98
2019-04-23T16:15:30.919Z,42.98
2019-04-23T16:18:13.889Z,40.28
2019-04-23T16:20:47.039Z,36.77
2019-04-23T16:23:17.885Z,31.97
2019-04-23T16:25:49.713Z,40.70
2019-04-23T16:28:18.994Z,45.00
2019-04-23T16:31:00.004Z,53.05
2019-04-23T16:33:35.318Z,38.33
2019-04-23T16:36:12.589Z,53.00
2019-04-23T16:38:45.648Z,46.08
2019-04-23T16:41:19.399Z,59.30
2019-04-23T16:49:10.179Z,54.73
2019-04-23T16:51:29.639Z,56.00
2019-04-23T16:54:10.007Z,58.08
2019-04-23T16:56:55.429Z,65.05
2019-04-23T16:59:15.434Z,53.87
2019-04-23T17:04:34.954Z,69.58
2019-04-23T17:06:52.354Z,57.58
2019-04-23T17:09:29.283Z,58.02
2019-04-23T17:12:03.676Z,56.90
2019-04-23T17:14:23.460Z,73.90
2019-04-23T17:16:53.392Z,60.83
2019-04-23T17:22:04.539Z,60.70
2019-04-23T17:25:01.148Z,60.23
2019-04-23T17:27:16.581Z,62.55
2019-04-23T17:29:41.989Z,82.47
2019-04-23T17:32:14.947Z,66.30
2019-04-23T17:35:04.853Z,72.45
2019-04-23T17:37:35.146Z,84.70
2019-04-23T17:40:17.457Z,76.70
2019-04-23T17:42:48.233Z,72.87
2019-04-23T17:48:11.813Z,77.20
2019-04-23T17:50:56.765Z,73.07
2019-04-23T17:53:26.844Z,84.22
2019-04-23T17:56:10.350Z,67.25
2019-04-23T18:03:55.938Z,82.80
2019-04-23T18:06:23.432Z,78.12
2019-04-23T18:08:43.538Z,102.15
2019-04-23T18:13:48.428Z,111.17
2019-04-23T18:16:30.812Z,93.90
2019-04-23T18:24:23.320Z,85.17
2019-04-23T18:29:37.700Z,73.65
2019-04-23T18:32:06.340Z,75.95
2019-04-23T18:34:55.374Z,72.78
2019-04-23T18:39:46.993Z,82.08
2019-04-23T18:42:45.173Z,87.15
2019-04-23T18:47:25.227Z,54.00
2019-04-23T18:52:33.649Z,41.37
2019-04-23T18:55:01.206Z,39.00
2019-04-23T18:57:27.613Z,31.68
2019-04-23T19:00:05.608Z,29.92
2019-04-23T19:02:55.041Z,29.45
2019-04-23T19:05:28.945Z,27.80
2019-04-23T19:13:07.296Z,26.35
2019-04-23T19:15:37.919Z,21.80
2019-04-23T19:18:04.160Z,21.62
2019-04-23T19:25:43.784Z,26.75
2019-04-23T19:28:42.703Z,28.40
2019-04-23T19:31:16.435Z,23.30
2019-04-23T19:36:13.761Z,20.27
2019-04-23T19:38:37.965Z,23.13
2019-04-23T19:41:10.751Z,20.35
2019-04-23T19:43:49.138Z,20.15
2019-04-23T19:46:22.281Z,26.68
2019-04-23T19:51:25.383Z,23.05
2019-04-23T19:54:09.514Z,20.27
2019-04-23T19:56:37.883Z,22.13
2019-04-23T20:01:39.983Z,22.50
2019-04-23T20:04:04.218Z,24.10
2019-04-23T20:09:30.686Z,17.15
2019-04-23T20:12:01.134Z,18.57
2019-04-23T20:14:29.171Z,23.30
2019-04-23T20:17:17.700Z,21.35
2019-04-23T20:19:37.600Z,20.70
2019-04-23T20:24:47.230Z,23.25
2019-04-23T20:27:11.811Z,21.63
2019-04-23T20:31:33.487Z,19.98
2019-04-23T20:31:47.445Z,22.05
2019-04-23T20:32:46.150Z,16.52
2019-04-23T20:37:55.848Z,19.90
2019-04-23T20:39:59.952Z,18.12
2019-04-23T20:42:27.259Z,25.17
2019-04-23T20:47:37.125Z,19.32
2019-04-23T20:49:58.863Z,17.57
2019-04-23T20:52:44.807Z,19.27
2019-04-23T20:57:47.342Z,17.23
2019-04-23T21:00:27.972Z,17.70
2019-04-23T21:03:30.958Z,24.30
2019-04-23T21:05:27.975Z,15.65
2019-04-23T21:08:44.217Z,18.73
2019-04-23T21:13:30.869Z,17.00
2019-04-23T21:18:34.539Z,24.92
2019-04-23T21:26:08.394Z,21.02
2019-04-23T21:41:45.517Z,25.80
2019-04-23T21:49:19.731Z,19.52
2019-04-23T21:54:06.160Z,23.32
2019-04-23T21:56:47.062Z,22.67
2019-04-23T21:59:10.468Z,23.22
2019-04-23T22:01:54.196Z,21.00
2019-04-23T22:09:35.086Z,34.20
2019-04-23T22:14:40.576Z,30.75
2019-04-23T22:17:10.241Z,36.33
2019-04-23T22:19:44.879Z,32.45
2019-04-23T22:22:13.281Z,45.38
2019-04-23T22:24:54.684Z,42.53
2019-04-23T22:27:20.170Z,48.93
2019-04-23T22:29:49.171Z,56.90
2019-04-23T22:32:40.834Z,57.53
2019-04-23T22:35:24.921Z,72.27
2019-04-23T22:37:48.416Z,75.42
2019-04-23T22:40:05.933Z,54.73
2019-04-23T22:43:05.412Z,72.30
2019-04-23T22:47:56.700Z,72.95
2019-04-23T22:50:18.862Z,85.55
2019-04-23T22:52:53.734Z,79.40
2019-04-23T22:55:23.480Z,77.15
2019-04-23T23:00:24.480Z,78.47
2019-04-23T23:06:03.117Z,75.80
2019-04-23T23:08:20.606Z,75.40
2019-04-23T23:11:00.386Z,86.45
2019-04-23T23:13:33.130Z,86.45
2019-04-23T23:18:34.088Z,76.15
2019-04-23T23:21:05.399Z,91.72
2019-04-23T23:23:40.859Z,71.35
2019-04-23T23:28:53.165Z,76.07
2019-04-23T23:31:11.348Z,78.65
2019-04-23T23:36:20.504Z,64.93
2019-04-23T23:39:00.487Z,64.55
2019-04-23T23:41:28.771Z,66.87
2019-04-23T23:44:26.340Z,62.60
2019-04-23T23:49:08.264Z,48.90
2019-04-23T23:51:39.779Z,49.80
2019-04-23T23:54:08.183Z,55.67
2019-04-23T23:56:50.104Z,53.63
